createdAt,value
2022-12-15T00:04:04.051Z,100094.03
2022-12-15T00:09:29.285Z,100106.94
2022-12-15T00:14:50.698Z,100117.53
2022-12-15T00:20:10.622Z,100110.78
2022-12-15T00:25:30.486Z,100118.31
2022-12-15T00:30:50.423Z,100122.44
2022-12-15T00:36:10.269Z,100133.22
2022-12-15T00:41:12.476Z,100140.53
2022-12-15T00:46:32.722Z,100151.22
2022-12-15T00:51:52.916Z,100149.50
2022-12-15T00:57:12.765Z,100163.28
2022-12-15T01:02:32.995Z,100161.72
2022-12-15T01:07:52.920Z,100152.56
2022-12-15T01:13:12.827Z,100160.22
2022-12-15T01:18:32.685Z,100159.78
2022-12-15T01:23:34.642Z,100178.88
2022-12-15T01:28:36.390Z,100191.72
2022-12-15T01:33:38.423Z,100196.84
2022-12-15T01:38:39.758Z,100199.31
2022-12-15T01:43:41.176Z,100194.34
2022-12-15T01:48:59.904Z,100187.00
2022-12-15T01:54:06.533Z,100189.91
2022-12-15T01:59:09.164Z,100189.06
2022-12-15T02:04:10.719Z,100214.44
2022-12-15T02:09:12.223Z,100208.88
2022-12-15T02:14:18.467Z,100209.22
2022-12-15T02:19:25.952Z,100225.16
2022-12-15T02:24:40.683Z,100231.78
2022-12-15T02:30:14.423Z,100242.72
2022-12-15T02:35:21.251Z,100253.81
2022-12-15T02:40:22.625Z,100264.66
2022-12-15T02:45:29.745Z,100263.09
2022-12-15T02:50:33.865Z,100266.03
2022-12-15T02:55:46.640Z,100269.53
2022-12-15T03:00:54.715Z,100267.16
2022-12-15T03:05:57.235Z,100263.88
2022-12-15T03:10:58.881Z,100266.97
2022-12-15T03:16:00.485Z,100268.94
2022-12-15T03:21:01.865Z,100265.78
2022-12-15T03:26:03.268Z,100260.78
2022-12-15T03:31:05.174Z,100255.91
2022-12-15T03:36:06.722Z,100259.41
2022-12-15T03:41:08.060Z,100270.78
2022-12-15T03:46:09.471Z,100272.41
2022-12-15T03:51:10.964Z,100282.22
2022-12-15T03:56:12.275Z,100275.13
2022-12-15T04:01:26.097Z,100286.41
2022-12-15T04:06:27.880Z,100283.34
2022-12-15T04:11:29.271Z,100281.50
2022-12-15T04:16:30.828Z,100287.91
2022-12-15T04:21:32.161Z,100297.41
2022-12-15T04:26:51.952Z,100294.00
2022-12-15T04:32:11.854Z,100289.81
2022-12-15T04:37:32.699Z,100289.34
2022-12-15T04:42:53.581Z,100294.06
2022-12-15T04:48:13.566Z,100312.47
2022-12-15T04:53:34.654Z,100310.91
2022-12-15T04:58:54.598Z,100310.56
2022-12-15T05:04:14.556Z,100315.38
2022-12-15T05:09:34.665Z,100312.78
2022-12-15T05:14:54.658Z,100319.97
2022-12-15T05:20:14.501Z,100324.97
2022-12-15T05:25:34.435Z,100317.38
2022-12-15T05:30:54.332Z,100328.13
2022-12-15T05:35:56.295Z,100326.91
2022-12-15T05:40:58.455Z,100335.84
2022-12-15T05:46:04.120Z,100341.16
2022-12-15T05:51:06.285Z,100334.91
2022-12-15T05:56:09.162Z,100345.06
2022-12-15T06:01:11.929Z,100343.41
2022-12-15T06:06:13.864Z,100352.16
2022-12-15T06:11:15.899Z,100353.06
2022-12-15T06:16:18.882Z,100363.03
2022-12-15T06:21:23.612Z,100377.63
2022-12-15T06:26:29.388Z,100367.91
2022-12-15T06:31:31.644Z,100375.81
2022-12-15T06:36:33.169Z,100375.19
2022-12-15T06:41:34.578Z,100378.25
2022-12-15T06:46:36.014Z,100381.63
2022-12-15T06:51:37.412Z,100383.81
2022-12-15T06:56:38.976Z,100363.56
2022-12-15T07:01:41.836Z,100376.19
2022-12-15T07:06:43.444Z,100375.56
2022-12-15T07:11:46.300Z,100382.53
2022-12-15T07:16:47.691Z,100385.09
2022-12-15T07:21:49.089Z,100395.63
2022-12-15T07:26:50.412Z,100388.97
2022-12-15T07:31:51.895Z,100399.31
2022-12-15T07:36:53.275Z,100402.25
2022-12-15T07:41:54.598Z,100404.59
2022-12-15T07:46:55.946Z,100423.94
2022-12-15T07:51:58.455Z,100421.47
2022-12-15T07:57:02.785Z,100415.84
2022-12-15T08:02:04.827Z,100416.00
2022-12-15T08:07:07.027Z,100415.75
2022-12-15T08:12:08.338Z,100414.56
2022-12-15T08:17:09.662Z,100424.56
2022-12-15T08:22:11.904Z,100417.81
2022-12-15T08:27:13.253Z,100423.44
2022-12-15T08:32:14.691Z,100435.53
2022-12-15T08:37:16.060Z,100436.25
2022-12-15T08:42:17.448Z,100441.09
2022-12-15T08:47:18.767Z,100442.44
2022-12-15T08:52:20.723Z,100450.97
2022-12-15T08:57:22.069Z,100459.59
2022-12-15T09:02:23.600Z,100463.53
2022-12-15T09:07:25.009Z,100459.91
2022-12-15T09:12:26.555Z,100471.97
2022-12-15T09:17:27.943Z,100487.28
2022-12-15T09:22:29.443Z,100495.94
2022-12-15T09:27:30.748Z,100481.19
2022-12-15T09:32:32.207Z,100475.56
2022-12-15T09:37:33.523Z,100474.94
2022-12-15T09:42:35.103Z,100475.75
2022-12-15T09:47:39.443Z,100488.53
2022-12-15T09:52:43.843Z,100491.00
2022-12-15T09:57:53.206Z,100506.69
2022-12-15T10:03:14.520Z,100511.06
2022-12-15T10:08:16.087Z,100522.81
2022-12-15T10:13:23.435Z,100513.44
2022-12-15T10:18:26.558Z,100516.38
2022-12-15T10:23:28.054Z,100508.34
2022-12-15T10:28:42.706Z,100503.34
2022-12-15T10:33:50.201Z,100510.81
2022-12-15T10:38:51.721Z,100515.22
2022-12-15T10:43:54.131Z,100513.91
2022-12-15T10:48:56.993Z,100511.03
2022-12-15T10:54:01.366Z,100496.84
2022-12-15T10:59:22.083Z,100502.59
2022-12-15T11:04:27.789Z,100496.13
2022-12-15T11:09:31.951Z,100493.84
2022-12-15T11:14:44.220Z,100479.38
2022-12-15T11:19:58.095Z,100481.72
2022-12-15T11:25:12.097Z,100473.28
2022-12-15T11:30:13.387Z,100473.00
2022-12-15T11:35:16.218Z,100471.31
2022-12-15T11:40:23.690Z,100445.63
2022-12-15T11:45:27.055Z,100451.09
2022-12-15T11:50:36.516Z,100452.44
2022-12-15T11:55:47.094Z,100445.56
2022-12-15T12:01:02.208Z,100450.72
2022-12-15T12:06:11.759Z,100432.97
2022-12-15T12:11:32.523Z,100429.50
2022-12-15T12:16:36.612Z,100423.22
2022-12-15T12:21:45.717Z,100417.63
2022-12-15T12:27:05.191Z,100415.06
2022-12-15T12:32:11.212Z,100408.19
2022-12-15T12:37:17.673Z,100397.81
2022-12-15T12:42:24.897Z,100393.06
2022-12-15T12:47:27.888Z,100381.19
2022-12-15T12:52:35.000Z,100380.88
2022-12-15T12:57:37.253Z,100371.09
2022-12-15T13:02:41.119Z,100368.34
2022-12-15T13:07:42.614Z,100359.59
2022-12-15T13:12:59.704Z,100350.22
2022-12-15T13:18:09.048Z,100343.19
2022-12-15T13:23:16.438Z,100333.41
2022-12-15T13:28:17.723Z,100323.19
2022-12-15T13:33:19.312Z,100322.06
2022-12-15T13:38:40.589Z,100316.56
2022-12-15T13:43:46.451Z,100304.09
2022-12-15T13:49:07.508Z,100299.13
2022-12-15T13:54:09.920Z,100286.47
2022-12-15T13:59:25.697Z,100276.25
2022-12-15T14:04:27.266Z,100280.75
2022-12-15T14:09:33.885Z,100278.81
2022-12-15T14:14:36.861Z,100266.63
2022-12-15T14:19:39.906Z,100263.31
2022-12-15T14:24:44.123Z,100261.75
2022-12-15T14:29:45.561Z,100271.50
2022-12-15T14:34:50.621Z,100282.03
2022-12-15T14:39:53.030Z,100281.44
2022-12-15T14:44:57.978Z,100275.38
2022-12-15T14:50:01.323Z,100266.97
2022-12-15T14:55:20.817Z,100282.47
2022-12-15T15:00:25.812Z,100297.03
2022-12-15T15:05:27.671Z,100302.72
2022-12-15T15:10:29.843Z,100310.44
2022-12-15T15:15:31.158Z,100336.75
2022-12-15T15:20:36.478Z,100340.03
2022-12-15T15:25:40.521Z,100350.03
2022-12-15T15:30:43.896Z,100350.38
2022-12-15T15:35:49.003Z,100350.25
2022-12-15T15:40:51.347Z,100355.34
2022-12-15T15:46:00.241Z,100357.16
2022-12-15T15:51:02.635Z,100361.22
2022-12-15T15:56:06.571Z,100363.22
2022-12-15T16:01:12.863Z,100369.78
2022-12-15T16:06:18.863Z,100371.34
2022-12-15T16:11:23.104Z,100373.91
2022-12-15T16:16:26.768Z,100382.09
2022-12-15T16:21:28.233Z,100372.03
2022-12-15T16:26:31.015Z,100358.66
2022-12-15T16:31:41.220Z,100357.50
2022-12-15T16:36:44.741Z,100373.66
2022-12-15T16:41:46.067Z,100389.00
2022-12-15T16:46:47.399Z,100380.91
2022-12-15T16:51:50.664Z,100384.38
2022-12-15T16:56:53.703Z,100398.34
2022-12-15T17:01:56.236Z,100399.47
2022-12-15T17:06:57.625Z,100397.88
2022-12-15T17:11:59.890Z,100415.97
2022-12-15T17:17:02.161Z,100414.94
2022-12-15T17:22:03.491Z,100402.59
2022-12-15T17:27:05.089Z,100409.34
2022-12-15T17:32:10.997Z,100402.53
2022-12-15T17:37:13.490Z,100404.94
2022-12-15T17:42:21.659Z,100408.41
2022-12-15T17:47:24.688Z,100413.13
2022-12-15T17:52:28.220Z,100410.31
2022-12-15T17:57:32.610Z,100399.97
2022-12-15T18:02:34.200Z,100395.81
2022-12-15T18:07:36.179Z,100389.06
2022-12-15T18:12:37.525Z,100389.31
2022-12-15T18:17:38.824Z,100397.88
2022-12-15T18:22:40.142Z,100410.59
2022-12-15T18:27:41.489Z,100402.59
2022-12-15T18:32:43.250Z,100405.50
2022-12-15T18:37:44.561Z,100409.59
2022-12-15T18:42:46.842Z,100401.72
2022-12-15T18:47:48.316Z,100406.97
2022-12-15T18:53:01.881Z,100407.50
2022-12-15T18:58:03.212Z,100397.22
2022-12-15T19:03:04.772Z,100396.94
2022-12-15T19:08:11.320Z,100398.44
2022-12-15T19:13:13.562Z,100407.41
2022-12-15T19:18:37.126Z,100408.28
2022-12-15T19:23:38.494Z,100413.94
2022-12-15T19:28:39.825Z,100419.59
2022-12-15T19:33:41.186Z,100419.75
2022-12-15T19:38:43.131Z,100408.50
2022-12-15T19:43:44.753Z,100410.22
2022-12-15T19:48:46.985Z,100413.25
2022-12-15T19:53:52.092Z,100415.03
2022-12-15T19:58:53.534Z,100415.34
2022-12-15T20:03:54.851Z,100418.00
2022-12-15T20:08:56.878Z,100401.91
2022-12-15T20:13:58.296Z,100406.13
2022-12-15T20:19:00.439Z,100415.44
2022-12-15T20:24:05.244Z,100409.97
2022-12-15T20:29:26.019Z,100399.81
2022-12-15T20:34:27.326Z,100399.53
2022-12-15T20:39:29.412Z,100402.81
2022-12-15T20:44:30.768Z,100396.78
2022-12-15T20:49:32.110Z,100385.53
2022-12-15T20:54:33.429Z,100389.94
2022-12-15T20:59:35.218Z,100390.44
2022-12-15T21:04:36.527Z,100403.44
2022-12-15T21:09:38.387Z,100394.13
2022-12-15T21:14:39.697Z,100394.94
2022-12-15T21:19:41.237Z,100394.19
2022-12-15T21:24:42.830Z,100392.69
2022-12-15T21:29:50.385Z,100403.41
2022-12-15T21:34:54.778Z,100404.47
2022-12-15T21:39:56.688Z,100406.19
2022-12-15T21:44:58.007Z,100409.84
2022-12-15T21:50:01.010Z,100415.69
2022-12-15T21:55:02.321Z,100410.28
2022-12-15T22:00:09.514Z,100412.53
2022-12-15T22:05:21.532Z,100417.75
2022-12-15T22:10:23.749Z,100423.03
2022-12-15T22:15:25.063Z,100429.16
2022-12-15T22:20:26.444Z,100438.47
2022-12-15T22:25:27.767Z,100435.28
2022-12-15T22:30:29.077Z,100443.34
2022-12-15T22:35:30.396Z,100441.53
2022-12-15T22:40:31.694Z,100441.00
2022-12-15T22:45:33.005Z,100446.63
2022-12-15T22:50:34.333Z,100450.25
2022-12-15T22:55:35.658Z,100449.88
2022-12-15T23:00:37.742Z,100451.88
2022-12-15T23:05:41.002Z,100464.78
2022-12-15T23:11:00.695Z,100456.66
2022-12-15T23:16:20.591Z,100452.16
2022-12-15T23:21:22.807Z,100454.75
2022-12-15T23:26:24.225Z,100446.38
2022-12-15T23:31:25.567Z,100457.69
2022-12-15T23:36:27.301Z,100469.84
2022-12-15T23:41:29.363Z,100455.91
2022-12-15T23:46:30.773Z,100462.22
2022-12-15T23:51:32.119Z,100454.50
2022-12-15T23:56:33.494Z,100462.22
